sensor_id;sensor_type;location;lat;lon;timestamp;temperature;humidity
22578;DHT22;11455;52.390;13.028;2022-07-01T00:02:13;26.20;1.00
22578;DHT22;11455;52.390;13.028;2022-07-01T00:04:39;26.20;1.00
22578;DHT22;11455;52.390;13.028;2022-07-01T00:07:23;26.10;1.00
22578;DHT22;11455;52.390;13.028;2022-07-01T00:09:49;26.10;1.00
22578;DHT22;11455;52.390;13.028;2022-07-01T00:12:15;26.10;4.20
22578;DHT22;11455;52.390;13.028;2022-07-01T00:14:40;26.00;7.40
22578;DHT22;11455;52.390;13.028;2022-07-01T00:17:07;26.10;12.40
22578;DHT22;11455;52.390;13.028;2022-07-01T00:19:33;26.00;18.70
22578;DHT22;11455;52.390;13.028;2022-07-01T00:22:01;26.00;17.40
22578;DHT22;11455;52.390;13.028;2022-07-01T00:24:27;26.00;18.70
22578;DHT22;11455;52.390;13.028;2022-07-01T00:26:53;26.00;20.40
22578;DHT22;11455;52.390;13.028;2022-07-01T00:29:18;26.00;19.60
22578;DHT22;11455;52.390;13.028;2022-07-01T00:31:44;26.00;20.90
22578;DHT22;11455;52.390;13.028;2022-07-01T00:34:09;26.00;27.30
22578;DHT22;11455;52.390;13.028;2022-07-01T00:36:35;25.90;34.40
22578;DHT22;11455;52.390;13.028;2022-07-01T00:39:00;25.90;42.80
22578;DHT22;11455;52.390;13.028;2022-07-01T00:41:26;25.80;47.20
22578;DHT22;11455;52.390;13.028;2022-07-01T00:43:52;25.70;53.80
22578;DHT22;11455;52.390;13.028;2022-07-01T00:46:18;25.80;53.00
22578;DHT22;11455;52.390;13.028;2022-07-01T00:48:44;25.80;55.10
22578;DHT22;11455;52.390;13.028;2022-07-01T00:51:10;25.80;50.80
22578;DHT22;11455;52.390;13.028;2022-07-01T00:53:36;25.90;49.50
22578;DHT22;11455;52.390;13.028;2022-07-01T00:56:02;25.90;48.00
22578;DHT22;11455;52.390;13.028;2022-07-01T00:58:28;25.90;50.70
22578;DHT22;11455;52.390;13.028;2022-07-01T01:00:54;25.80;57.00
22578;DHT22;11455;52.390;13.028;2022-07-01T01:03:20;25.80;58.90
22578;DHT22;11455;52.390;13.028;2022-07-01T01:05:45;25.80;64.50
22578;DHT22;11455;52.390;13.028;2022-07-01T01:08:11;25.70;70.00
22578;DHT22;11455;52.390;13.028;2022-07-01T01:10:39;25.70;76.20
22578;DHT22;11455;52.390;13.028;2022-07-01T01:13:05;25.70;82.80
22578;DHT22;11455;52.390;13.028;2022-07-01T01:15:31;25.70;91.50
22578;DHT22;11455;52.390;13.028;2022-07-01T01:17:56;25.60;92.10
22578;DHT22;11455;52.390;13.028;2022-07-01T01:20:22;25.60;94.60
22578;DHT22;11455;52.390;13.028;2022-07-01T01:22:48;25.60;97.70
22578;DHT22;11455;52.390;13.028;2022-07-01T01:25:17;25.50;98.70
22578;DHT22;11455;52.390;13.028;2022-07-01T01:27:43;25.50;99.10
22578;DHT22;11455;52.390;13.028;2022-07-01T01:30:10;25.60;99.30
22578;DHT22;11455;52.390;13.028;2022-07-01T01:32:39;25.50;99.90
22578;DHT22;11455;52.390;13.028;2022-07-01T01:35:06;25.50;98.90
22578;DHT22;11455;52.390;13.028;2022-07-01T01:37:33;25.60;99.80
22578;DHT22;11455;52.390;13.028;2022-07-01T01:39:58;25.50;99.90
22578;DHT22;11455;52.390;13.028;2022-07-01T01:42:24;25.50;99.90
22578;DHT22;11455;52.390;13.028;2022-07-01T01:44:50;25.60;99.90
22578;DHT22;11455;52.390;13.028;2022-07-01T01:47:15;25.50;99.90
22578;DHT22;11455;52.390;13.028;2022-07-01T01:49:43;25.50;99.90
22578;DHT22;11455;52.390;13.028;2022-07-01T01:52:09;25.40;99.90
22578;DHT22;11455;52.390;13.028;2022-07-01T01:54:34;25.50;99.90
22578;DHT22;11455;52.390;13.028;2022-07-01T01:57:02;25.40;99.90
22578;DHT22;11455;52.390;13.028;2022-07-01T01:59:28;25.40;99.90
22578;DHT22;11455;52.390;13.028;2022-07-01T02:01:54;25.40;99.90
22578;DHT22;11455;52.390;13.028;2022-07-01T02:04:19;25.40;99.90
22578;DHT22;11455;52.390;13.028;2022-07-01T02:06:46;25.40;99.90
22578;DHT22;11455;52.390;13.028;2022-07-01T02:09:11;25.40;99.90
22578;DHT22;11455;52.390;13.028;2022-07-01T02:11:38;25.40;99.90
22578;DHT22;11455;52.390;13.028;2022-07-01T02:14:04;25.30;99.90
22578;DHT22;11455;52.390;13.028;2022-07-01T02:16:29;25.30;99.90
22578;DHT22;11455;52.390;13.028;2022-07-01T02:18:55;25.30;99.90
22578;DHT22;11455;52.390;13.028;2022-07-01T02:21:20;25.40;99.90
22578;DHT22;11455;52.390;13.028;2022-07-01T02:23:47;25.40;99.90
22578;DHT22;11455;52.390;13.028;2022-07-01T02:26:12;25.40;99.90
22578;DHT22;11455;52.390;13.028;2022-07-01T02:28:40;25.40;99.90
22578;DHT22;11455;52.390;13.028;2022-07-01T02:31:06;25.30;99.90
22578;DHT22;11455;52.390;13.028;2022-07-01T02:33:32;25.30;99.90
22578;DHT22;11455;52.390;13.028;2022-07-01T02:35:58;25.30;99.90
22578;DHT22;11455;52.390;13.028;2022-07-01T02:38:24;25.40;99.90
22578;DHT22;11455;52.390;13.028;2022-07-01T02:40:49;25.40;99.90
22578;DHT22;11455;52.390;13.028;2022-07-01T02:43:15;25.40;99.90
22578;DHT22;11455;52.390;13.028;2022-07-01T02:45:41;25.40;99.90
22578;DHT22;11455;52.390;13.028;2022-07-01T02:48:07;25.30;99.90
22578;DHT22;11455;52.390;13.028;2022-07-01T02:50:33;25.30;99.90
22578;DHT22;11455;52.390;13.028;2022-07-01T02:52:58;25.30;99.90
22578;DHT22;11455;52.390;13.028;2022-07-01T02:55:24;25.30;99.90
22578;DHT22;11455;52.390;13.028;2022-07-01T02:57:50;25.30;99.90
22578;DHT22;11455;52.390;13.028;2022-07-01T03:00:17;25.30;99.90
22578;DHT22;11455;52.390;13.028;2022-07-01T03:02:43;25.30;99.90
22578;DHT22;11455;52.390;13.028;2022-07-01T03:05:08;25.20;99.90
22578;DHT22;11455;52.390;13.028;2022-07-01T03:07:35;25.20;99.90
22578;DHT22;11455;52.390;13.028;2022-07-01T03:10:03;25.20;99.90
22578;DHT22;11455;52.390;13.028;2022-07-01T03:12:31;25.30;99.90
22578;DHT22;11455;52.390;13.028;2022-07-01T03:15:11;25.30;99.90
22578;DHT22;11455;52.390;13.028;2022-07-01T03:17:39;25.30;99.90
22578;DHT22;11455;52.390;13.028;2022-07-01T03:20:08;25.30;99.90
22578;DHT22;11455;52.390;13.028;2022-07-01T03:22:34;25.30;99.90
22578;DHT22;11455;52.390;13.028;2022-07-01T03:25:00;25.30;99.90
22578;DHT22;11455;52.390;13.028;2022-07-01T03:27:27;25.30;99.90
22578;DHT22;11455;52.390;13.028;2022-07-01T03:29:54;25.20;99.90
22578;DHT22;11455;52.390;13.028;2022-07-01T03:32:19;25.20;99.90
22578;DHT22;11455;52.390;13.028;2022-07-01T03:34:46;25.20;99.90
22578;DHT22;11455;52.390;13.028;2022-07-01T03:37:12;25.20;99.90
22578;DHT22;11455;52.390;13.028;2022-07-01T03:39:38;25.20;99.90
22578;DHT22;11455;52.390;13.028;2022-07-01T03:42:04;25.20;99.90
22578;DHT22;11455;52.390;13.028;2022-07-01T03:44:30;25.20;99.90
22578;DHT22;11455;52.390;13.028;2022-07-01T03:46:56;25.10;99.90
22578;DHT22;11455;52.390;13.028;2022-07-01T03:49:22;25.10;99.90
22578;DHT22;11455;52.390;13.028;2022-07-01T03:51:48;25.10;99.90
22578;DHT22;11455;52.390;13.028;2022-07-01T03:54:13;25.10;99.90
22578;DHT22;11455;52.390;13.028;2022-07-01T03:57:01;25.10;99.90
22578;DHT22;11455;52.390;13.028;2022-07-01T03:59:35;25.00;99.90
22578;DHT22;11455;52.390;13.028;2022-07-01T04:02:01;25.00;99.90
22578;DHT22;11455;52.390;13.028;2022-07-01T04:04:27;25.00;99.90
22578;DHT22;11455;52.390;13.028;2022-07-01T04:06:58;25.00;99.90
22578;DHT22;11455;52.390;13.028;2022-07-01T04:09:24;25.00;99.90
22578;DHT22;11455;52.390;13.028;2022-07-01T04:11:50;25.00;99.90
22578;DHT22;11455;52.390;13.028;2022-07-01T04:14:16;25.10;99.90
22578;DHT22;11455;52.390;13.028;2022-07-01T04:16:43;25.10;99.90
22578;DHT22;11455;52.390;13.028;2022-07-01T04:19:09;25.10;99.90
22578;DHT22;11455;52.390;13.028;2022-07-01T04:21:35;25.20;99.90
22578;DHT22;11455;52.390;13.028;2022-07-01T04:24:19;25.30;99.90
22578;DHT22;11455;52.390;13.028;2022-07-01T04:26:44;25.40;99.90
22578;DHT22;11455;52.390;13.028;2022-07-01T04:29:10;25.50;99.90
22578;DHT22;11455;52.390;13.028;2022-07-01T04:31:36;25.50;99.90
22578;DHT22;11455;52.390;13.028;2022-07-01T04:34:03;25.30;99.90
22578;DHT22;11455;52.390;13.028;2022-07-01T04:36:28;25.20;99.90
22578;DHT22;11455;52.390;13.028;2022-07-01T04:38:54;25.10;99.90
22578;DHT22;11455;52.390;13.028;2022-07-01T04:41:20;25.00;99.90
22578;DHT22;11455;52.390;13.028;2022-07-01T04:44:04;25.00;99.90
22578;DHT22;11455;52.390;13.028;2022-07-01T04:46:30;25.10;99.90
22578;DHT22;11455;52.390;13.028;2022-07-01T04:48:55;25.00;99.90
22578;DHT22;11455;52.390;13.028;2022-07-01T04:51:21;25.00;99.90
22578;DHT22;11455;52.390;13.028;2022-07-01T04:53:46;25.00;99.90
22578;DHT22;11455;52.390;13.028;2022-07-01T04:56:12;25.00;99.90
22578;DHT22;11455;52.390;13.028;2022-07-01T04:58:38;25.20;99.90
22578;DHT22;11455;52.390;13.028;2022-07-01T05:01:03;25.20;99.90
22578;DHT22;11455;52.390;13.028;2022-07-01T05:03:29;25.20;99.90
22578;DHT22;11455;52.390;13.028;2022-07-01T05:05:57;25.20;99.90
22578;DHT22;11455;52.390;13.028;2022-07-01T05:08:22;25.30;99.90
22578;DHT22;11455;52.390;13.028;2022-07-01T05:10:48;25.20;99.90
22578;DHT22;11455;52.390;13.028;2022-07-01T05:13:13;25.10;99.90
22578;DHT22;11455;52.390;13.028;2022-07-01T05:15:39;25.00;99.90
22578;DHT22;11455;52.390;13.028;2022-07-01T05:18:04;25.00;99.90
22578;DHT22;11455;52.390;13.028;2022-07-01T05:20:49;24.90;99.90
22578;DHT22;11455;52.390;13.028;2022-07-01T05:23:33;24.90;99.90
22578;DHT22;11455;52.390;13.028;2022-07-01T05:26:01;24.90;99.90
22578;DHT22;11455;52.390;13.028;2022-07-01T05:28:27;25.00;99.90
22578;DHT22;11455;52.390;13.028;2022-07-01T05:30:53;25.00;99.90
22578;DHT22;11455;52.390;13.028;2022-07-01T05:33:19;25.00;99.90
22578;DHT22;11455;52.390;13.028;2022-07-01T05:35:49;25.10;99.90
22578;DHT22;11455;52.390;13.028;2022-07-01T05:38:15;25.20;99.90
22578;DHT22;11455;52.390;13.028;2022-07-01T05:40:43;25.20;99.90
22578;DHT22;11455;52.390;13.028;2022-07-01T05:43:08;25.20;99.90
22578;DHT22;11455;52.390;13.028;2022-07-01T05:45:34;25.30;99.90
22578;DHT22;11455;52.390;13.028;2022-07-01T05:47:59;25.40;99.90
22578;DHT22;11455;52.390;13.028;2022-07-01T05:50:25;25.50;99.90
22578;DHT22;11455;52.390;13.028;2022-07-01T05:52:51;25.60;99.90
22578;DHT22;11455;52.390;13.028;2022-07-01T05:55:16;25.70;99.90
22578;DHT22;11455;52.390;13.028;2022-07-01T05:57:42;25.80;99.90
22578;DHT22;11455;52.390;13.028;2022-07-01T06:00:08;25.80;99.90
22578;DHT22;11455;52.390;13.028;2022-07-01T06:02:38;25.70;99.90
22578;DHT22;11455;52.390;13.028;2022-07-01T06:05:03;25.50;99.90
22578;DHT22;11455;52.390;13.028;2022-07-01T06:07:29;25.50;99.90
22578;DHT22;11455;52.390;13.028;2022-07-01T06:09:55;25.50;99.90
22578;DHT22;11455;52.390;13.028;2022-07-01T06:12:21;25.40;99.90
22578;DHT22;11455;52.390;13.028;2022-07-01T06:14:46;25.30;99.90
22578;DHT22;11455;52.390;13.028;2022-07-01T06:17:12;25.20;99.90
22578;DHT22;11455;52.390;13.028;2022-07-01T06:19:38;25.10;99.90
22578;DHT22;11455;52.390;13.028;2022-07-01T06:22:04;25.00;99.90
22578;DHT22;11455;52.390;13.028;2022-07-01T06:24:30;24.90;99.90
22578;DHT22;11455;52.390;13.028;2022-07-01T06:26:56;24.80;99.90
22578;DHT22;11455;52.390;13.028;2022-07-01T06:29:21;24.80;99.90
22578;DHT22;11455;52.390;13.028;2022-07-01T06:31:47;24.80;99.90
22578;DHT22;11455;52.390;13.028;2022-07-01T06:34:12;24.80;99.90
22578;DHT22;11455;52.390;13.028;2022-07-01T06:36:38;24.80;99.90
22578;DHT22;11455;52.390;13.028;2022-07-01T06:39:04;24.80;99.90
22578;DHT22;11455;52.390;13.028;2022-07-01T06:41:29;24.80;99.90
22578;DHT22;11455;52.390;13.028;2022-07-01T06:43:56;24.80;99.90
22578;DHT22;11455;52.390;13.028;2022-07-01T06:46:22;24.80;99.90
22578;DHT22;11455;52.390;13.028;2022-07-01T06:48:47;24.90;99.90
22578;DHT22;11455;52.390;13.028;2022-07-01T06:51:13;24.90;99.90
22578;DHT22;11455;52.390;13.028;2022-07-01T06:53:39;24.90;95.40
22578;DHT22;11455;52.390;13.028;2022-07-01T06:56:09;24.90;99.90
22578;DHT22;11455;52.390;13.028;2022-07-01T06:58:34;24.90;56.60
22578;DHT22;11455;52.390;13.028;2022-07-01T07:01:00;24.90;60.80
22578;DHT22;11455;52.390;13.028;2022-07-01T07:03:27;24.90;27.50
22578;DHT22;11455;52.390;13.028;2022-07-01T07:05:58;24.80;25.10
22578;DHT22;11455;52.390;13.028;2022-07-01T07:08:25;24.80;28.90
22578;DHT22;11455;52.390;13.028;2022-07-01T07:10:51;24.90;29.90
22578;DHT22;11455;52.390;13.028;2022-07-01T07:13:17;24.90;18.50
22578;DHT22;11455;52.390;13.028;2022-07-01T07:15:43;25.00;22.50
22578;DHT22;11455;52.390;13.028;2022-07-01T07:18:10;25.00;28.70
22578;DHT22;11455;52.390;13.028;2022-07-01T07:20:36;24.90;9.30
22578;DHT22;11455;52.390;13.028;2022-07-01T07:23:02;24.80;25.40
22578;DHT22;11455;52.390;13.028;2022-07-01T07:25:28;24.80;33.20
22578;DHT22;11455;52.390;13.028;2022-07-01T07:27:53;24.90;23.10
22578;DHT22;11455;52.390;13.028;2022-07-01T07:30:19;25.00;11.40
22578;DHT22;11455;52.390;13.028;2022-07-01T07:32:45;25.00;4.00
22578;DHT22;11455;52.390;13.028;2022-07-01T07:35:10;24.90;9.60
22578;DHT22;11455;52.390;13.028;2022-07-01T07:37:36;24.90;18.90
22578;DHT22;11455;52.390;13.028;2022-07-01T07:40:02;25.00;18.20
22578;DHT22;11455;52.390;13.028;2022-07-01T07:42:29;25.00;10.00
22578;DHT22;11455;52.390;13.028;2022-07-01T07:44:55;25.00;1.00
22578;DHT22;11455;52.390;13.028;2022-07-01T07:47:20;24.90;6.10
22578;DHT22;11455;52.390;13.028;2022-07-01T07:49:46;24.90;13.50
22578;DHT22;11455;52.390;13.028;2022-07-01T07:52:14;25.00;19.90
22578;DHT22;11455;52.390;13.028;2022-07-01T07:54:40;25.10;25.10
22578;DHT22;11455;52.390;13.028;2022-07-01T07:57:05;25.10;33.50
22578;DHT22;11455;52.390;13.028;2022-07-01T07:59:32;25.10;27.10
22578;DHT22;11455;52.390;13.028;2022-07-01T08:01:57;25.00;36.30
22578;DHT22;11455;52.390;13.028;2022-07-01T08:04:23;24.90;42.10
22578;DHT22;11455;52.390;13.028;2022-07-01T08:06:48;24.90;62.70
22578;DHT22;11455;52.390;13.028;2022-07-01T08:09:14;24.70;91.80
22578;DHT22;11455;52.390;13.028;2022-07-01T08:11:40;24.80;91.10
22578;DHT22;11455;52.390;13.028;2022-07-01T08:14:05;24.90;69.70
22578;DHT22;11455;52.390;13.028;2022-07-01T08:16:33;25.00;69.90
22578;DHT22;11455;52.390;13.028;2022-07-01T08:18:58;25.10;78.50
22578;DHT22;11455;52.390;13.028;2022-07-01T08:21:24;25.20;89.20
22578;DHT22;11455;52.390;13.028;2022-07-01T08:23:52;25.20;90.90
22578;DHT22;11455;52.390;13.028;2022-07-01T08:26:17;25.30;81.80
22578;DHT22;11455;52.390;13.028;2022-07-01T08:28:43;25.40;70.20
22578;DHT22;11455;52.390;13.028;2022-07-01T08:31:09;25.60;52.90
22578;DHT22;11455;52.390;13.028;2022-07-01T08:33:35;25.70;37.20
22578;DHT22;11455;52.390;13.028;2022-07-01T08:36:03;25.50;29.80
22578;DHT22;11455;52.390;13.028;2022-07-01T08:38:29;25.30;43.80
22578;DHT22;11455;52.390;13.028;2022-07-01T08:40:54;25.20;45.10
22578;DHT22;11455;52.390;13.028;2022-07-01T08:43:20;25.10;31.20
22578;DHT22;11455;52.390;13.028;2022-07-01T08:45:45;24.60;56.40
22578;DHT22;11455;52.390;13.028;2022-07-01T08:48:11;24.20;99.90
22578;DHT22;11455;52.390;13.028;2022-07-01T08:50:38;24.00;99.90
22578;DHT22;11455;52.390;13.028;2022-07-01T08:53:03;23.90;99.90
22578;DHT22;11455;52.390;13.028;2022-07-01T08:55:30;23.80;99.90
22578;DHT22;11455;52.390;13.028;2022-07-01T08:57:55;23.80;99.90
22578;DHT22;11455;52.390;13.028;2022-07-01T09:00:21;23.70;99.90
22578;DHT22;11455;52.390;13.028;2022-07-01T09:05:22;23.30;99.90
22578;DHT22;11455;52.390;13.028;2022-07-01T09:07:48;23.20;99.90
22578;DHT22;11455;52.390;13.028;2022-07-01T09:10:14;23.10;99.90
22578;DHT22;11455;52.390;13.028;2022-07-01T09:12:43;22.90;99.90
22578;DHT22;11455;52.390;13.028;2022-07-01T09:15:19;22.90;99.90
22578;DHT22;11455;52.390;13.028;2022-07-01T09:17:45;22.80;99.90
22578;DHT22;11455;52.390;13.028;2022-07-01T09:23:10;22.30;99.90
22578;DHT22;11455;52.390;13.028;2022-07-01T09:25:37;22.00;99.90
22578;DHT22;11455;52.390;13.028;2022-07-01T09:28:06;21.80;99.90
22578;DHT22;11455;52.390;13.028;2022-07-01T09:30:32;21.80;99.90
22578;DHT22;11455;52.390;13.028;2022-07-01T09:33:08;21.70;99.90
22578;DHT22;11455;52.390;13.028;2022-07-01T09:35:35;21.60;99.90
22578;DHT22;11455;52.390;13.028;2022-07-01T09:38:04;21.30;99.90
22578;DHT22;11455;52.390;13.028;2022-07-01T09:40:52;21.00;99.90
22578;DHT22;11455;52.390;13.028;2022-07-01T09:43:24;20.90;99.90
22578;DHT22;11455;52.390;13.028;2022-07-01T09:45:59;21.00;99.90
22578;DHT22;11455;52.390;13.028;2022-07-01T09:48:26;21.10;99.90
22578;DHT22;11455;52.390;13.028;2022-07-01T09:50:52;21.20;99.90
22578;DHT22;11455;52.390;13.028;2022-07-01T09:53:21;21.50;99.90
22578;DHT22;11455;52.390;13.028;2022-07-01T09:55:47;21.50;99.90
22578;DHT22;11455;52.390;13.028;2022-07-01T09:58:12;21.50;99.90
22578;DHT22;11455;52.390;13.028;2022-07-01T10:00:38;21.60;99.90
22578;DHT22;11455;52.390;13.028;2022-07-01T10:03:04;21.50;99.90
22578;DHT22;11455;52.390;13.028;2022-07-01T10:05:31;21.50;99.90
22578;DHT22;11455;52.390;13.028;2022-07-01T10:10:49;21.40;99.90
22578;DHT22;11455;52.390;13.028;2022-07-01T10:13:17;21.40;99.90
22578;DHT22;11455;52.390;13.028;2022-07-01T10:15:46;21.40;99.90
22578;DHT22;11455;52.390;13.028;2022-07-01T10:18:23;21.30;99.90
22578;DHT22;11455;52.390;13.028;2022-07-01T10:20:49;21.40;99.90
22578;DHT22;11455;52.390;13.028;2022-07-01T10:23:15;21.30;99.90
22578;DHT22;11455;52.390;13.028;2022-07-01T10:25:51;21.10;99.90
22578;DHT22;11455;52.390;13.028;2022-07-01T10:28:26;21.00;99.90
22578;DHT22;11455;52.390;13.028;2022-07-01T10:36:10;21.40;99.90
22578;DHT22;11455;52.390;13.028;2022-07-01T10:41:24;21.20;99.90
22578;DHT22;11455;52.390;13.028;2022-07-01T10:43:49;21.20;99.90
22578;DHT22;11455;52.390;13.028;2022-07-01T10:48:59;21.20;99.90
22578;DHT22;11455;52.390;13.028;2022-07-01T10:54:14;21.00;99.90
22578;DHT22;11455;52.390;13.028;2022-07-01T10:59:45;21.10;99.90
22578;DHT22;11455;52.390;13.028;2022-07-01T11:02:11;21.00;99.90
22578;DHT22;11455;52.390;13.028;2022-07-01T11:04:40;21.00;99.90
22578;DHT22;11455;52.390;13.028;2022-07-01T11:07:09;21.00;99.90
22578;DHT22;11455;52.390;13.028;2022-07-01T11:09:35;21.10;99.90
22578;DHT22;11455;52.390;13.028;2022-07-01T11:12:01;20.80;99.90
22578;DHT22;11455;52.390;13.028;2022-07-01T11:14:27;20.40;99.90
22578;DHT22;11455;52.390;13.028;2022-07-01T11:16:53;20.00;99.90
22578;DHT22;11455;52.390;13.028;2022-07-01T11:19:19;20.10;99.90
22578;DHT22;11455;52.390;13.028;2022-07-01T11:21:48;20.30;99.90
22578;DHT22;11455;52.390;13.028;2022-07-01T11:24:14;20.50;99.90
22578;DHT22;11455;52.390;13.028;2022-07-01T11:26:46;21.00;99.90
22578;DHT22;11455;52.390;13.028;2022-07-01T11:29:13;21.00;99.90
22578;DHT22;11455;52.390;13.028;2022-07-01T11:31:39;20.90;99.90
22578;DHT22;11455;52.390;13.028;2022-07-01T11:34:07;20.90;99.90
22578;DHT22;11455;52.390;13.028;2022-07-01T11:36:33;20.90;99.90
22578;DHT22;11455;52.390;13.028;2022-07-01T11:39:18;20.90;99.90
22578;DHT22;11455;52.390;13.028;2022-07-01T11:41:56;20.90;99.90
22578;DHT22;11455;52.390;13.028;2022-07-01T11:44:35;20.80;99.90
22578;DHT22;11455;52.390;13.028;2022-07-01T11:47:02;20.90;99.90
22578;DHT22;11455;52.390;13.028;2022-07-01T11:49:28;21.00;99.90
22578;DHT22;11455;52.390;13.028;2022-07-01T11:52:04;21.00;99.90
22578;DHT22;11455;52.390;13.028;2022-07-01T11:54:35;21.10;99.90
22578;DHT22;11455;52.390;13.028;2022-07-01T11:57:07;21.00;99.90
22578;DHT22;11455;52.390;13.028;2022-07-01T11:59:33;20.80;99.90
22578;DHT22;11455;52.390;13.028;2022-07-01T12:01:59;20.60;99.90
22578;DHT22;11455;52.390;13.028;2022-07-01T12:04:24;20.70;99.90
22578;DHT22;11455;52.390;13.028;2022-07-01T12:06:52;20.90;99.90
22578;DHT22;11455;52.390;13.028;2022-07-01T12:09:18;20.80;99.90
22578;DHT22;11455;52.390;13.028;2022-07-01T12:11:47;20.80;99.90
22578;DHT22;11455;52.390;13.028;2022-07-01T12:14:19;20.70;99.90
22578;DHT22;11455;52.390;13.028;2022-07-01T12:16:46;20.80;99.90
22578;DHT22;11455;52.390;13.028;2022-07-01T12:19:12;20.70;99.90
22578;DHT22;11455;52.390;13.028;2022-07-01T12:21:51;20.60;99.90
22578;DHT22;11455;52.390;13.028;2022-07-01T12:24:17;20.70;99.90
22578;DHT22;11455;52.390;13.028;2022-07-01T12:26:48;20.70;99.90
22578;DHT22;11455;52.390;13.028;2022-07-01T12:29:14;20.70;99.90
22578;DHT22;11455;52.390;13.028;2022-07-01T12:31:43;20.80;99.90
22578;DHT22;11455;52.390;13.028;2022-07-01T12:34:09;20.90;99.90
22578;DHT22;11455;52.390;13.028;2022-07-01T12:36:37;21.00;99.90
22578;DHT22;11455;52.390;13.028;2022-07-01T12:39:03;20.90;99.90
22578;DHT22;11455;52.390;13.028;2022-07-01T12:41:33;20.90;99.90
22578;DHT22;11455;52.390;13.028;2022-07-01T12:43:59;20.90;99.90
22578;DHT22;11455;52.390;13.028;2022-07-01T12:46:28;21.20;99.90
22578;DHT22;11455;52.390;13.028;2022-07-01T12:48:54;21.20;99.90
22578;DHT22;11455;52.390;13.028;2022-07-01T12:51:20;21.20;99.90
22578;DHT22;11455;52.390;13.028;2022-07-01T12:53:45;21.20;99.90
22578;DHT22;11455;52.390;13.028;2022-07-01T12:56:45;21.20;99.90
22578;DHT22;11455;52.390;13.028;2022-07-01T12:59:04;21.00;99.90
22578;DHT22;11455;52.390;13.028;2022-07-01T13:01:29;20.70;99.90
22578;DHT22;11455;52.390;13.028;2022-07-01T13:03:55;20.50;99.90
22578;DHT22;11455;52.390;13.028;2022-07-01T13:06:21;20.40;99.90
22578;DHT22;11455;52.390;13.028;2022-07-01T13:08:46;20.30;99.90
22578;DHT22;11455;52.390;13.028;2022-07-01T13:11:12;20.30;99.90
22578;DHT22;11455;52.390;13.028;2022-07-01T13:13:37;20.20;99.90
22578;DHT22;11455;52.390;13.028;2022-07-01T13:16:03;20.20;99.90
22578;DHT22;11455;52.390;13.028;2022-07-01T13:18:29;20.20;99.90
22578;DHT22;11455;52.390;13.028;2022-07-01T13:20:54;20.20;99.90
22578;DHT22;11455;52.390;13.028;2022-07-01T13:23:20;20.20;99.90
22578;DHT22;11455;52.390;13.028;2022-07-01T13:25:45;20.20;99.90
22578;DHT22;11455;52.390;13.028;2022-07-01T13:28:11;20.20;99.90
22578;DHT22;11455;52.390;13.028;2022-07-01T13:30:36;20.10;99.90
22578;DHT22;11455;52.390;13.028;2022-07-01T13:33:03;20.20;99.90
22578;DHT22;11455;52.390;13.028;2022-07-01T13:35:29;20.20;99.90
22578;DHT22;11455;52.390;13.028;2022-07-01T13:37:54;20.10;99.90
22578;DHT22;11455;52.390;13.028;2022-07-01T13:40:20;20.10;99.90
22578;DHT22;11455;52.390;13.028;2022-07-01T13:42:47;20.00;99.90
22578;DHT22;11455;52.390;13.028;2022-07-01T13:45:13;19.90;99.90
22578;DHT22;11455;52.390;13.028;2022-07-01T13:47:38;19.80;99.90
22578;DHT22;11455;52.390;13.028;2022-07-01T13:50:04;19.50;99.90
22578;DHT22;11455;52.390;13.028;2022-07-01T13:52:30;19.50;99.90
22578;DHT22;11455;52.390;13.028;2022-07-01T13:54:56;19.40;99.90
22578;DHT22;11455;52.390;13.028;2022-07-01T13:57:22;19.40;99.90
22578;DHT22;11455;52.390;13.028;2022-07-01T13:59:48;19.30;99.90
22578;DHT22;11455;52.390;13.028;2022-07-01T14:02:14;19.30;99.90
22578;DHT22;11455;52.390;13.028;2022-07-01T14:04:39;19.40;99.90
22578;DHT22;11455;52.390;13.028;2022-07-01T14:07:05;19.30;99.90
22578;DHT22;11455;52.390;13.028;2022-07-01T14:09:31;19.30;99.90
22578;DHT22;11455;52.390;13.028;2022-07-01T14:11:57;19.30;99.90
22578;DHT22;11455;52.390;13.028;2022-07-01T14:14:22;19.40;99.90
22578;DHT22;11455;52.390;13.028;2022-07-01T14:16:48;19.40;99.90
22578;DHT22;11455;52.390;13.028;2022-07-01T14:19:14;19.40;99.90
22578;DHT22;11455;52.390;13.028;2022-07-01T14:21:39;19.40;99.90
22578;DHT22;11455;52.390;13.028;2022-07-01T14:24:07;19.50;99.90
22578;DHT22;11455;52.390;13.028;2022-07-01T14:26:33;19.60;99.90
22578;DHT22;11455;52.390;13.028;2022-07-01T14:28:58;19.60;99.90
22578;DHT22;11455;52.390;13.028;2022-07-01T14:31:24;19.60;99.90
22578;DHT22;11455;52.390;13.028;2022-07-01T14:33:49;19.50;99.90
22578;DHT22;11455;52.390;13.028;2022-07-01T14:36:15;19.30;99.90
22578;DHT22;11455;52.390;13.028;2022-07-01T14:38:40;19.20;99.90
22578;DHT22;11455;52.390;13.028;2022-07-01T14:41:06;19.20;99.90
22578;DHT22;11455;52.390;13.028;2022-07-01T14:43:32;19.20;99.90
22578;DHT22;11455;52.390;13.028;2022-07-01T14:45:59;19.20;99.90
22578;DHT22;11455;52.390;13.028;2022-07-01T14:48:26;19.30;99.90
22578;DHT22;11455;52.390;13.028;2022-07-01T14:50:51;19.40;99.90
22578;DHT22;11455;52.390;13.028;2022-07-01T14:53:17;19.40;99.90
22578;DHT22;11455;52.390;13.028;2022-07-01T14:55:42;19.40;99.90
22578;DHT22;11455;52.390;13.028;2022-07-01T14:58:08;19.40;99.90
22578;DHT22;11455;52.390;13.028;2022-07-01T15:00:36;19.40;99.90
22578;DHT22;11455;52.390;13.028;2022-07-01T15:03:07;19.30;99.90
22578;DHT22;11455;52.390;13.028;2022-07-01T15:05:33;19.20;99.90
22578;DHT22;11455;52.390;13.028;2022-07-01T15:07:59;19.20;99.90
22578;DHT22;11455;52.390;13.028;2022-07-01T15:10:24;19.20;99.90
22578;DHT22;11455;52.390;13.028;2022-07-01T15:12:50;19.20;99.90
22578;DHT22;11455;52.390;13.028;2022-07-01T15:15:17;19.30;99.90
22578;DHT22;11455;52.390;13.028;2022-07-01T15:17:43;19.40;99.90
22578;DHT22;11455;52.390;13.028;2022-07-01T15:20:10;19.50;99.90
22578;DHT22;11455;52.390;13.028;2022-07-01T15:22:36;19.50;99.90
22578;DHT22;11455;52.390;13.028;2022-07-01T15:25:02;19.50;99.90
22578;DHT22;11455;52.390;13.028;2022-07-01T15:27:27;19.60;99.90
22578;DHT22;11455;52.390;13.028;2022-07-01T15:29:53;19.70;99.90
22578;DHT22;11455;52.390;13.028;2022-07-01T15:32:18;19.90;99.90
22578;DHT22;11455;52.390;13.028;2022-07-01T15:34:44;19.80;99.90
22578;DHT22;11455;52.390;13.028;2022-07-01T15:37:11;19.90;99.90
22578;DHT22;11455;52.390;13.028;2022-07-01T15:39:37;19.80;99.90
22578;DHT22;11455;52.390;13.028;2022-07-01T15:42:03;19.70;99.90